createdAt,value
2023-05-16T00:00:46.251Z,9.33
2023-05-16T00:03:12.752Z,9.40
2023-05-16T00:05:39.283Z,9.10
2023-05-16T00:08:06.153Z,9.52
2023-05-16T00:10:32.531Z,8.70
2023-05-16T00:13:01.803Z,8.90
2023-05-16T00:15:29.672Z,9.83
2023-05-16T00:18:00.184Z,9.27
2023-05-16T00:20:28.630Z,9.57
2023-05-16T00:22:55.394Z,9.70
2023-05-16T00:25:21.836Z,9.33
2023-05-16T00:27:48.214Z,9.90
2023-05-16T00:30:14.627Z,9.87
2023-05-16T00:32:41.054Z,11.03
2023-05-16T00:35:10.422Z,10.20
2023-05-16T00:37:37.542Z,11.30
2023-05-16T00:40:05.038Z,10.80
2023-05-16T00:42:31.580Z,10.63
2023-05-16T00:44:57.957Z,11.77
2023-05-16T00:47:24.362Z,11.20
2023-05-16T00:49:50.822Z,12.33
2023-05-16T00:52:17.212Z,12.20
2023-05-16T00:54:43.989Z,12.20
2023-05-16T00:57:10.535Z,13.40
2023-05-16T00:59:37.028Z,12.70
2023-05-16T01:02:03.471Z,13.10
2023-05-16T01:04:31.089Z,13.80
2023-05-16T01:06:57.951Z,14.23
2023-05-16T01:09:24.451Z,14.57
2023-05-16T01:11:57.461Z,15.87
2023-05-16T01:14:42.553Z,15.90
2023-05-16T01:17:20.438Z,16.27
2023-05-16T01:20:00.493Z,16.83
2023-05-16T01:22:38.588Z,18.67
2023-05-16T01:25:45.816Z,18.47
2023-05-16T01:28:14.845Z,18.83
2023-05-16T01:30:41.615Z,16.60
2023-05-16T01:33:08.841Z,18.33
2023-05-16T01:36:04.216Z,17.70
2023-05-16T01:38:39.257Z,18.30
2023-05-16T01:41:25.384Z,17.07
2023-05-16T01:43:57.409Z,17.20
2023-05-16T01:46:26.740Z,17.90
2023-05-16T01:49:01.469Z,17.03
2023-05-16T01:51:33.266Z,17.13
2023-05-16T01:54:05.482Z,16.37
2023-05-16T01:56:32.918Z,17.57
2023-05-16T01:59:00.669Z,16.83
2023-05-16T02:01:27.147Z,17.20
2023-05-16T02:03:53.596Z,16.50
2023-05-16T02:06:20.258Z,16.80
2023-05-16T02:08:46.636Z,16.17
2023-05-16T02:11:13.033Z,17.43
2023-05-16T02:13:39.399Z,16.57
2023-05-16T02:16:05.850Z,17.90
2023-05-16T02:18:32.717Z,16.70
2023-05-16T02:20:59.363Z,16.97
2023-05-16T02:23:25.813Z,15.60
2023-05-16T02:25:52.218Z,17.50
2023-05-16T02:28:18.630Z,16.63
2023-05-16T02:30:45.026Z,18.00
2023-05-16T02:33:11.633Z,16.40
2023-05-16T02:35:38.095Z,18.37
2023-05-16T02:38:04.473Z,16.77
2023-05-16T02:40:31.034Z,17.20
2023-05-16T02:42:57.414Z,17.60
2023-05-16T02:45:23.799Z,17.93
2023-05-16T02:47:50.263Z,18.30
2023-05-16T02:50:16.671Z,17.90
2023-05-16T02:52:43.048Z,17.27
2023-05-16T02:55:35.778Z,17.73
2023-05-16T02:57:55.899Z,17.43
2023-05-16T03:00:22.501Z,16.93
2023-05-16T03:02:49.023Z,18.40
2023-05-16T03:05:15.457Z,18.70
2023-05-16T03:07:41.822Z,17.90
2023-05-16T03:10:08.687Z,17.00
2023-05-16T03:12:35.069Z,18.10
2023-05-16T03:15:01.801Z,16.97
2023-05-16T03:17:28.697Z,18.27
2023-05-16T03:19:55.160Z,18.53
2023-05-16T03:22:21.551Z,18.63
2023-05-16T03:24:47.987Z,19.23
2023-05-16T03:27:14.384Z,18.00
2023-05-16T03:29:40.988Z,19.17
2023-05-16T03:32:07.532Z,19.50
2023-05-16T03:34:34.077Z,19.57
2023-05-16T03:37:00.464Z,18.97
2023-05-16T03:39:26.837Z,19.57
2023-05-16T03:41:56.095Z,21.30
2023-05-16T03:44:22.532Z,20.80
2023-05-16T03:46:51.475Z,20.83
2023-05-16T03:49:17.920Z,20.23
2023-05-16T03:51:44.289Z,20.83
2023-05-16T03:54:10.799Z,20.27
2023-05-16T03:56:37.168Z,19.50
2023-05-16T03:59:03.695Z,21.47
2023-05-16T04:01:30.223Z,20.90
2023-05-16T04:03:56.629Z,20.37
2023-05-16T04:06:23.103Z,20.33
2023-05-16T04:08:49.590Z,19.70
2023-05-16T04:11:15.965Z,21.80
2023-05-16T04:13:42.348Z,20.43
2023-05-16T04:16:08.768Z,19.80
2023-05-16T04:18:35.237Z,20.73
2023-05-16T04:21:01.721Z,20.97
2023-05-16T04:23:28.254Z,20.90
2023-05-16T04:25:56.413Z,21.27
2023-05-16T04:28:23.123Z,21.57
2023-05-16T04:30:50.358Z,22.53
2023-05-16T04:33:16.938Z,22.97
2023-05-16T04:35:43.372Z,22.83
2023-05-16T04:38:09.732Z,22.20
2023-05-16T04:40:36.086Z,22.53
2023-05-16T04:43:02.453Z,23.50
2023-05-16T04:45:29.108Z,22.30
2023-05-16T04:47:55.772Z,22.67
2023-05-16T04:50:22.196Z,23.47
2023-05-16T04:52:48.583Z,21.63
2023-05-16T04:55:15.012Z,22.03
2023-05-16T04:57:41.428Z,22.27
2023-05-16T05:00:10.170Z,21.73
2023-05-16T05:02:36.676Z,23.03
2023-05-16T05:05:03.429Z,23.10
2023-05-16T05:07:29.993Z,22.17
2023-05-16T05:09:56.445Z,21.53
2023-05-16T05:12:23.049Z,21.67
2023-05-16T05:14:49.631Z,21.73
2023-05-16T05:17:16.794Z,20.83
2023-05-16T05:19:43.359Z,20.60
2023-05-16T05:22:09.751Z,21.57
2023-05-16T05:24:36.331Z,21.77
2023-05-16T05:27:02.826Z,22.43
2023-05-16T05:29:29.195Z,16.87
2023-05-16T05:31:55.690Z,22.33
2023-05-16T05:34:22.180Z,20.73
2023-05-16T05:36:48.552Z,22.10
2023-05-16T05:39:14.928Z,20.40
2023-05-16T05:41:41.298Z,20.87
2023-05-16T05:44:07.662Z,18.87
2023-05-16T05:46:34.318Z,19.07
2023-05-16T05:49:01.307Z,17.70
2023-05-16T05:51:27.988Z,15.43
2023-05-16T05:53:54.524Z,16.67
2023-05-16T05:56:21.410Z,16.03
2023-05-16T05:58:47.956Z,16.13
2023-05-16T06:01:14.519Z,14.77
2023-05-16T06:03:40.943Z,13.90
2023-05-16T06:06:07.951Z,13.43
2023-05-16T06:08:34.467Z,13.83
2023-05-16T06:11:01.541Z,13.93
2023-05-16T06:13:27.925Z,13.00
2023-05-16T06:15:54.551Z,12.87
2023-05-16T06:18:21.280Z,13.13
2023-05-16T06:20:47.654Z,12.10
2023-05-16T06:23:14.046Z,12.57
2023-05-16T06:25:40.417Z,13.40
2023-05-16T06:28:06.783Z,12.93
2023-05-16T06:30:33.154Z,10.90
2023-05-16T06:32:59.696Z,11.83
2023-05-16T06:35:26.398Z,11.70
2023-05-16T06:37:52.907Z,10.80
2023-05-16T06:40:19.286Z,11.20
2023-05-16T06:42:45.732Z,10.13
2023-05-16T06:45:12.270Z,10.07
2023-05-16T06:47:38.787Z,10.10
2023-05-16T06:50:06.069Z,10.37
2023-05-16T06:52:32.469Z,9.73
2023-05-16T06:54:58.874Z,9.60
2023-05-16T06:57:25.329Z,9.50
2023-05-16T06:59:51.746Z,9.47
2023-05-16T07:02:18.211Z,9.10
2023-05-16T07:04:44.669Z,8.87
2023-05-16T07:07:11.100Z,8.27
2023-05-16T07:09:37.549Z,8.77
2023-05-16T07:12:04.351Z,8.00
2023-05-16T07:14:30.766Z,8.23
2023-05-16T07:16:57.199Z,7.37
2023-05-16T07:19:23.835Z,7.57
2023-05-16T07:21:50.374Z,7.37
2023-05-16T07:24:16.794Z,7.20
2023-05-16T07:26:43.431Z,7.13
2023-05-16T07:29:09.874Z,7.07
2023-05-16T07:31:36.373Z,6.50
2023-05-16T07:34:02.847Z,6.87
2023-05-16T07:36:29.319Z,5.80
2023-05-16T07:38:55.736Z,6.63
2023-05-16T07:41:22.210Z,6.17
2023-05-16T07:43:48.727Z,6.50
2023-05-16T07:46:15.455Z,6.37
2023-05-16T07:48:42.000Z,5.83
2023-05-16T07:51:08.499Z,5.70
2023-05-16T07:53:34.950Z,5.87
2023-05-16T07:56:01.440Z,5.23
2023-05-16T07:58:27.883Z,5.10
2023-05-16T08:00:54.597Z,4.90
2023-05-16T08:03:21.286Z,4.70
2023-05-16T08:05:49.080Z,5.27
2023-05-16T08:08:15.653Z,4.70
2023-05-16T08:10:42.086Z,4.77
2023-05-16T08:13:08.571Z,4.97
2023-05-16T08:15:35.836Z,4.90
2023-05-16T08:18:02.354Z,5.07
2023-05-16T08:20:28.845Z,4.40
2023-05-16T08:22:55.335Z,4.40
2023-05-16T08:25:21.754Z,4.33
2023-05-16T08:27:49.865Z,4.37
2023-05-16T08:30:16.373Z,4.40
2023-05-16T08:32:42.934Z,3.97
2023-05-16T08:35:11.026Z,4.07
2023-05-16T08:37:37.559Z,4.10
2023-05-16T08:40:05.794Z,3.47
2023-05-16T08:42:33.768Z,3.60
2023-05-16T08:45:00.287Z,3.60
2023-05-16T08:47:30.021Z,3.80
2023-05-16T08:49:58.400Z,3.57
2023-05-16T08:52:30.587Z,3.17
2023-05-16T08:55:10.073Z,2.80
2023-05-16T08:57:38.871Z,3.00
2023-05-16T09:00:11.889Z,2.77
2023-05-16T09:02:43.216Z,2.97
2023-05-16T09:05:12.608Z,3.00
2023-05-16T09:07:39.260Z,3.00
2023-05-16T09:10:07.026Z,2.80
2023-05-16T09:12:34.022Z,3.63
2023-05-16T09:15:03.114Z,4.40
2023-05-16T09:17:44.231Z,3.67
2023-05-16T09:20:16.539Z,2.73
2023-05-16T09:22:56.858Z,2.70
2023-05-16T09:25:31.486Z,2.77
2023-05-16T09:28:01.448Z,2.80
2023-05-16T09:30:33.714Z,2.83
2023-05-16T09:33:00.465Z,2.33
2023-05-16T09:37:56.782Z,2.60
2023-05-16T09:40:24.060Z,2.87
2023-05-16T09:43:07.173Z,2.70
2023-05-16T09:45:35.299Z,2.60
2023-05-16T09:48:08.396Z,2.77
2023-05-16T09:50:37.196Z,2.70
2023-05-16T09:53:04.106Z,3.07
2023-05-16T09:55:31.521Z,2.47
2023-05-16T09:57:58.226Z,2.40
2023-05-16T10:00:33.549Z,3.20
2023-05-16T10:03:04.769Z,2.83
2023-05-16T10:05:32.838Z,3.10
2023-05-16T10:07:59.850Z,2.73
2023-05-16T10:10:27.207Z,2.97
2023-05-16T10:12:58.619Z,3.10
2023-05-16T10:15:26.046Z,3.20
2023-05-16T10:17:56.500Z,3.10
2023-05-16T10:20:24.226Z,2.70
2023-05-16T10:22:55.175Z,2.77
2023-05-16T10:25:38.893Z,3.20
2023-05-16T10:28:07.094Z,3.27
2023-05-16T10:30:34.901Z,3.23
2023-05-16T10:33:04.245Z,3.73
2023-05-16T10:35:35.063Z,5.80
2023-05-16T10:38:02.581Z,3.77
2023-05-16T10:40:30.475Z,3.87
2023-05-16T10:43:02.070Z,3.83
2023-05-16T10:45:29.044Z,5.23
2023-05-16T10:47:58.890Z,3.80
2023-05-16T10:50:45.398Z,3.70
2023-05-16T10:53:31.577Z,4.00
2023-05-16T10:56:01.209Z,3.83
2023-05-16T10:58:35.084Z,3.40
2023-05-16T11:01:20.668Z,3.40
2023-05-16T11:04:02.543Z,3.47
2023-05-16T11:06:33.089Z,3.27
2023-05-16T11:09:10.164Z,3.60
2023-05-16T11:11:49.417Z,2.97
2023-05-16T11:14:25.826Z,3.23
2023-05-16T11:17:03.407Z,3.47
2023-05-16T11:19:34.185Z,3.20
2023-05-16T11:22:11.718Z,3.27
2023-05-16T11:24:39.716Z,3.20
2023-05-16T11:27:06.831Z,3.30
2023-05-16T11:29:35.071Z,3.53
2023-05-16T11:32:03.737Z,2.93
2023-05-16T11:34:31.605Z,3.00
2023-05-16T11:37:00.123Z,3.80
2023-05-16T11:39:26.640Z,2.97
2023-05-16T11:41:56.076Z,3.27
2023-05-16T11:44:22.490Z,3.07
2023-05-16T11:46:48.926Z,3.10
2023-05-16T11:49:15.546Z,2.53
2023-05-16T11:51:43.339Z,3.20
2023-05-16T11:54:10.507Z,3.20
2023-05-16T11:56:37.415Z,3.10
2023-05-16T11:59:04.490Z,3.27
2023-05-16T12:01:39.041Z,3.23
2023-05-16T12:04:13.698Z,2.70
2023-05-16T12:06:41.011Z,2.93
2023-05-16T12:09:11.580Z,3.10
2023-05-16T12:11:38.511Z,3.07
2023-05-16T12:14:10.362Z,2.87
2023-05-16T12:16:38.907Z,3.30
2023-05-16T12:19:07.079Z,2.63
2023-05-16T12:21:34.056Z,3.00
2023-05-16T12:24:00.799Z,2.57
2023-05-16T12:26:30.766Z,3.07
2023-05-16T12:29:00.734Z,3.17
2023-05-16T12:31:32.347Z,2.50
2023-05-16T12:33:59.379Z,2.63
2023-05-16T12:36:26.465Z,2.73
2023-05-16T12:38:53.691Z,3.17
2023-05-16T12:41:21.699Z,2.63
2023-05-16T12:43:49.040Z,3.27
2023-05-16T12:46:16.348Z,3.43
2023-05-16T12:48:44.132Z,3.13
2023-05-16T12:51:18.203Z,3.20
2023-05-16T12:53:57.720Z,2.63
2023-05-16T12:56:32.397Z,3.23
2023-05-16T12:58:58.820Z,2.70
2023-05-16T13:01:25.349Z,3.10
2023-05-16T13:03:51.939Z,2.40
2023-05-16T13:06:18.558Z,2.75
2023-05-16T13:08:44.969Z,2.80
2023-05-16T13:11:11.390Z,2.60
2023-05-16T13:13:37.800Z,2.90
2023-05-16T13:16:04.450Z,2.72
2023-05-16T13:18:31.573Z,2.45
2023-05-16T13:20:58.301Z,2.78
2023-05-16T13:23:24.750Z,2.70
2023-05-16T13:25:53.009Z,2.60
2023-05-16T13:28:19.438Z,2.58
2023-05-16T13:30:45.946Z,2.67
2023-05-16T13:33:12.596Z,2.40
2023-05-16T13:35:39.155Z,3.00
2023-05-16T13:38:05.555Z,2.58
2023-05-16T13:40:32.795Z,2.58
2023-05-16T13:43:00.948Z,2.28
2023-05-16T13:45:27.813Z,2.65
2023-05-16T13:47:54.632Z,2.78
2023-05-16T13:50:21.478Z,2.60
2023-05-16T13:52:48.752Z,2.45
2023-05-16T13:55:15.227Z,2.83
2023-05-16T13:57:41.784Z,2.45
2023-05-16T14:00:35.124Z,2.70
2023-05-16T14:02:58.891Z,2.50
2023-05-16T14:05:26.216Z,2.30
2023-05-16T14:07:52.653Z,2.30
2023-05-16T14:10:19.125Z,2.80
2023-05-16T14:12:45.534Z,1.90
2023-05-16T14:15:12.233Z,2.47
2023-05-16T14:17:38.838Z,2.78
2023-05-16T14:20:11.467Z,2.35
2023-05-16T14:22:38.491Z,2.20
2023-05-16T14:25:06.183Z,2.70
2023-05-16T14:27:32.618Z,2.25
2023-05-16T14:29:59.650Z,2.25
2023-05-16T14:32:26.196Z,1.85
2023-05-16T14:34:52.797Z,1.98
2023-05-16T14:37:20.238Z,2.30
2023-05-16T14:39:47.295Z,2.08
2023-05-16T14:42:13.733Z,2.33
2023-05-16T14:44:40.152Z,2.10
2023-05-16T14:47:06.749Z,2.30
2023-05-16T14:49:33.224Z,2.65
2023-05-16T14:51:59.684Z,2.33
2023-05-16T14:54:26.118Z,2.35
2023-05-16T14:56:52.542Z,2.17
2023-05-16T14:59:19.043Z,2.40
2023-05-16T15:01:45.566Z,2.03
2023-05-16T15:04:12.006Z,1.88
2023-05-16T15:06:38.401Z,1.98
2023-05-16T15:09:05.788Z,1.90
2023-05-16T15:11:32.247Z,2.22
2023-05-16T15:13:58.833Z,2.00
2023-05-16T15:16:25.385Z,2.20
2023-05-16T15:18:51.860Z,2.08
2023-05-16T15:21:18.315Z,2.13
2023-05-16T15:23:45.382Z,2.00
2023-05-16T15:26:11.797Z,1.80
2023-05-16T15:28:38.538Z,2.22
2023-05-16T15:31:05.850Z,2.22
2023-05-16T15:33:32.301Z,1.70
2023-05-16T15:35:58.701Z,1.90
2023-05-16T15:38:25.151Z,2.00
2023-05-16T15:41:05.079Z,1.88
2023-05-16T15:43:38.649Z,1.70
2023-05-16T15:46:06.719Z,1.50
2023-05-16T15:48:33.187Z,1.70
2023-05-16T15:50:59.641Z,1.92
2023-05-16T15:53:26.356Z,1.80
2023-05-16T15:55:52.758Z,1.80
2023-05-16T15:58:22.548Z,1.95
2023-05-16T16:00:49.224Z,2.45
2023-05-16T16:03:15.701Z,3.15
2023-05-16T16:05:42.206Z,6.38
2023-05-16T16:08:08.631Z,2.17
2023-05-16T16:10:35.288Z,2.00
2023-05-16T16:13:02.899Z,1.80
2023-05-16T16:15:33.186Z,2.22
2023-05-16T16:18:00.571Z,2.22
2023-05-16T16:20:27.199Z,1.75
2023-05-16T16:22:53.689Z,1.90
2023-05-16T16:25:20.171Z,1.75
2023-05-16T16:27:46.572Z,1.95
2023-05-16T16:30:13.110Z,1.77
2023-05-16T16:32:39.611Z,1.77
2023-05-16T16:35:06.249Z,1.90
2023-05-16T16:37:32.917Z,2.28
2023-05-16T16:39:59.461Z,1.90
2023-05-16T16:42:26.822Z,1.95
2023-05-16T16:44:53.655Z,2.00
2023-05-16T16:47:21.266Z,1.60
2023-05-16T16:49:47.674Z,1.80
2023-05-16T16:52:14.106Z,2.00
2023-05-16T16:54:40.686Z,1.83
2023-05-16T16:57:07.200Z,1.80
2023-05-16T16:59:33.620Z,1.70
2023-05-16T17:02:00.196Z,1.95
2023-05-16T17:04:26.610Z,4.28
2023-05-16T17:06:53.055Z,1.67
2023-05-16T17:09:19.782Z,1.50
2023-05-16T17:11:46.783Z,1.65
2023-05-16T17:14:14.372Z,1.70
2023-05-16T17:16:41.154Z,1.88
2023-05-16T17:19:08.884Z,1.95
2023-05-16T17:21:36.843Z,1.83
2023-05-16T17:24:03.770Z,2.13
2023-05-16T17:26:31.610Z,1.45
2023-05-16T17:29:00.158Z,1.70
2023-05-16T17:31:27.175Z,1.70
2023-05-16T17:33:53.943Z,2.08
2023-05-16T17:36:20.729Z,2.25
2023-05-16T17:38:47.676Z,2.40
2023-05-16T17:41:14.501Z,2.33
2023-05-16T17:43:41.259Z,1.98
2023-05-16T17:46:08.281Z,2.20
2023-05-16T17:48:34.754Z,1.98
2023-05-16T17:51:01.808Z,2.03
2023-05-16T17:53:29.531Z,2.00
2023-05-16T17:55:56.682Z,1.65
2023-05-16T17:58:23.457Z,2.20
2023-05-16T18:00:49.920Z,1.95
2023-05-16T18:03:16.985Z,1.80
2023-05-16T18:05:43.582Z,1.80
2023-05-16T18:08:10.057Z,1.92
2023-05-16T18:10:50.269Z,1.80
2023-05-16T18:13:17.945Z,1.90
2023-05-16T18:15:44.383Z,2.00
2023-05-16T18:18:11.058Z,2.03
2023-05-16T18:20:37.715Z,1.70
2023-05-16T18:23:04.251Z,1.92
2023-05-16T18:25:31.677Z,1.90
2023-05-16T18:27:58.089Z,1.73
2023-05-16T18:30:24.562Z,1.80
2023-05-16T18:32:51.148Z,1.95
2023-05-16T18:35:17.668Z,1.90
2023-05-16T18:37:44.548Z,2.35
2023-05-16T18:40:11.494Z,2.72
2023-05-16T18:42:37.913Z,2.40
2023-05-16T18:45:04.654Z,2.10
2023-05-16T18:47:31.435Z,2.45
2023-05-16T18:49:57.959Z,2.30
2023-05-16T18:52:24.392Z,2.20
2023-05-16T18:54:50.824Z,2.40
2023-05-16T18:57:17.667Z,1.90
2023-05-16T18:59:44.124Z,1.90
2023-05-16T19:02:10.571Z,2.07
2023-05-16T19:04:39.904Z,4.83
2023-05-16T19:07:07.934Z,3.40
2023-05-16T19:09:35.851Z,2.57
2023-05-16T19:12:03.393Z,2.20
2023-05-16T19:14:29.821Z,1.97
2023-05-16T19:16:56.266Z,2.00
2023-05-16T19:19:22.866Z,2.30
2023-05-16T19:21:49.722Z,2.10
2023-05-16T19:24:16.363Z,1.73
2023-05-16T19:26:42.785Z,2.00
2023-05-16T19:29:10.658Z,1.90
2023-05-16T19:31:37.189Z,1.60
2023-05-16T19:34:03.655Z,1.90
2023-05-16T19:36:30.206Z,2.00
2023-05-16T19:38:56.634Z,1.77
2023-05-16T19:41:24.593Z,1.70
2023-05-16T19:43:51.511Z,2.10
2023-05-16T19:46:17.931Z,2.10
2023-05-16T19:48:44.471Z,1.80
2023-05-16T19:51:10.921Z,1.67
2023-05-16T19:53:37.421Z,2.20
2023-05-16T19:56:04.695Z,2.23
2023-05-16T19:58:31.164Z,1.87
2023-05-16T20:00:58.552Z,2.27
2023-05-16T20:03:25.273Z,2.73
2023-05-16T20:05:51.814Z,2.37
2023-05-16T20:08:18.239Z,2.00
2023-05-16T20:10:44.989Z,2.10
2023-05-16T20:13:11.387Z,1.40
2023-05-16T20:15:37.811Z,1.73
2023-05-16T20:18:04.373Z,2.00
2023-05-16T20:20:30.884Z,1.83
2023-05-16T20:22:57.315Z,1.87
2023-05-16T20:25:23.719Z,2.00
2023-05-16T20:27:50.171Z,1.87
2023-05-16T20:30:16.671Z,1.83
2023-05-16T20:32:43.102Z,1.80
2023-05-16T20:35:11.187Z,1.70
2023-05-16T20:37:37.681Z,1.80
2023-05-16T20:40:05.999Z,1.80
2023-05-16T20:42:32.420Z,1.90
2023-05-16T20:44:58.839Z,1.80
2023-05-16T20:47:25.395Z,2.10
2023-05-16T20:49:51.824Z,2.00
2023-05-16T20:52:19.863Z,1.70
2023-05-16T20:54:47.721Z,1.70
2023-05-16T20:57:14.129Z,2.40
2023-05-16T20:59:40.870Z,2.10
2023-05-16T21:02:09.983Z,1.70
2023-05-16T21:04:37.423Z,1.70
2023-05-16T21:07:05.352Z,2.00
2023-05-16T21:09:33.701Z,1.90
2023-05-16T21:12:00.117Z,1.57
2023-05-16T21:14:26.591Z,1.53
2023-05-16T21:16:52.997Z,1.77
2023-05-16T21:19:19.559Z,1.70
2023-05-16T21:21:46.269Z,2.50
2023-05-16T21:24:12.659Z,2.00
2023-05-16T21:26:39.084Z,2.03
2023-05-16T21:29:05.519Z,2.10
2023-05-16T21:31:31.960Z,1.90
2023-05-16T21:33:58.465Z,1.93
2023-05-16T21:36:24.961Z,1.87
2023-05-16T21:38:51.469Z,2.03
2023-05-16T21:41:18.221Z,1.83
2023-05-16T21:43:44.690Z,1.90
2023-05-16T21:46:11.112Z,2.17
2023-05-16T21:48:37.685Z,2.70
2023-05-16T21:51:04.258Z,1.67
2023-05-16T21:53:30.661Z,2.00
2023-05-16T21:55:57.109Z,2.23
2023-05-16T21:58:25.105Z,2.07
2023-05-16T22:00:51.542Z,1.97
2023-05-16T22:03:20.933Z,2.03
2023-05-16T22:05:47.707Z,2.23
2023-05-16T22:08:14.192Z,2.40
2023-05-16T22:10:40.629Z,2.33
2023-05-16T22:13:08.040Z,2.30
2023-05-16T22:15:34.750Z,2.23
2023-05-16T22:18:01.351Z,2.57
2023-05-16T22:20:27.933Z,2.47
2023-05-16T22:22:54.349Z,2.20
2023-05-16T22:25:20.826Z,2.30
2023-05-16T22:27:47.236Z,1.87
2023-05-16T22:30:13.692Z,1.90
2023-05-16T22:32:40.213Z,2.10
2023-05-16T22:35:07.030Z,2.13
2023-05-16T22:37:33.440Z,2.30
2023-05-16T22:39:59.860Z,2.43
2023-05-16T22:42:26.310Z,2.57
2023-05-16T22:44:52.729Z,2.27
2023-05-16T22:47:19.509Z,2.10
2023-05-16T22:49:45.910Z,1.87
2023-05-16T22:52:12.344Z,2.00
2023-05-16T22:54:38.796Z,2.30
2023-05-16T22:57:05.376Z,2.07
2023-05-16T22:59:31.952Z,2.43
2023-05-16T23:01:58.791Z,2.30
2023-05-16T23:04:25.347Z,2.20
2023-05-16T23:06:51.806Z,2.23
2023-05-16T23:09:18.229Z,2.47
2023-05-16T23:11:44.638Z,1.80
2023-05-16T23:14:11.128Z,2.53
2023-05-16T23:16:37.571Z,1.90
2023-05-16T23:19:05.010Z,2.07
2023-05-16T23:21:32.537Z,2.37
2023-05-16T23:23:58.976Z,2.50
2023-05-16T23:26:25.431Z,2.30
2023-05-16T23:28:52.117Z,2.90
2023-05-16T23:31:18.526Z,3.10
2023-05-16T23:33:45.026Z,2.80
2023-05-16T23:36:11.484Z,2.30
2023-05-16T23:38:38.429Z,2.53
2023-05-16T23:41:04.887Z,2.40
2023-05-16T23:43:31.304Z,2.43
2023-05-16T23:45:57.729Z,2.50
2023-05-16T23:48:24.310Z,2.93
2023-05-16T23:50:51.474Z,2.33
2023-05-16T23:53:17.906Z,2.67
2023-05-16T23:55:44.359Z,2.67
2023-05-16T23:58:10.852Z,2.60
